sensor_id;sensor_type;location;lat;lon;timestamp;temperature;humidity
17659;DHT22;8948;51.534;8.262;2023-07-30T00:00:41;19.90;71.50
17659;DHT22;8948;51.534;8.262;2023-07-30T00:10:49;19.60;71.90
17659;DHT22;8948;51.534;8.262;2023-07-30T00:15:49;19.60;71.60
17659;DHT22;8948;51.534;8.262;2023-07-30T00:20:50;19.50;71.40
17659;DHT22;8948;51.534;8.262;2023-07-30T00:25:51;19.50;71.70
17659;DHT22;8948;51.534;8.262;2023-07-30T00:30:51;19.50;71.50
17659;DHT22;8948;51.534;8.262;2023-07-30T00:35:52;19.50;71.60
17659;DHT22;8948;51.534;8.262;2023-07-30T00:40:52;19.50;71.80
17659;DHT22;8948;51.534;8.262;2023-07-30T00:45:53;19.40;71.70
17659;DHT22;8948;51.534;8.262;2023-07-30T00:50:54;19.40;71.40
17659;DHT22;8948;51.534;8.262;2023-07-30T00:55:55;19.40;70.70
17659;DHT22;8948;51.534;8.262;2023-07-30T01:00:56;19.30;70.80
17659;DHT22;8948;51.534;8.262;2023-07-30T01:05:57;19.20;69.50
17659;DHT22;8948;51.534;8.262;2023-07-30T01:10:58;19.20;68.60
17659;DHT22;8948;51.534;8.262;2023-07-30T01:15:59;19.10;68.20
17659;DHT22;8948;51.534;8.262;2023-07-30T01:21:00;19.00;68.80
17659;DHT22;8948;51.534;8.262;2023-07-30T01:26:09;18.90;69.30
17659;DHT22;8948;51.534;8.262;2023-07-30T01:31:14;18.90;69.50
17659;DHT22;8948;51.534;8.262;2023-07-30T01:36:15;18.80;69.20
17659;DHT22;8948;51.534;8.262;2023-07-30T01:41:16;18.70;68.80
17659;DHT22;8948;51.534;8.262;2023-07-30T01:46:17;18.70;68.70
17659;DHT22;8948;51.534;8.262;2023-07-30T01:51:17;18.60;68.70
17659;DHT22;8948;51.534;8.262;2023-07-30T01:56:18;18.50;68.20
17659;DHT22;8948;51.534;8.262;2023-07-30T02:01:18;18.50;68.20
17659;DHT22;8948;51.534;8.262;2023-07-30T02:06:19;18.40;66.80
17659;DHT22;8948;51.534;8.262;2023-07-30T02:11:20;18.40;65.90
17659;DHT22;8948;51.534;8.262;2023-07-30T02:16:20;18.40;65.00
17659;DHT22;8948;51.534;8.262;2023-07-30T02:21:21;18.30;65.30
17659;DHT22;8948;51.534;8.262;2023-07-30T02:26:21;18.30;66.00
17659;DHT22;8948;51.534;8.262;2023-07-30T02:31:22;18.30;66.40
17659;DHT22;8948;51.534;8.262;2023-07-30T02:36:24;18.30;66.80
17659;DHT22;8948;51.534;8.262;2023-07-30T02:41:24;18.30;66.70
17659;DHT22;8948;51.534;8.262;2023-07-30T02:46:25;18.30;66.90
17659;DHT22;8948;51.534;8.262;2023-07-30T02:51:25;18.10;67.20
17659;DHT22;8948;51.534;8.262;2023-07-30T02:56:26;18.10;68.20
17659;DHT22;8948;51.534;8.262;2023-07-30T03:01:26;18.20;68.60
17659;DHT22;8948;51.534;8.262;2023-07-30T03:06:27;18.20;68.10
17659;DHT22;8948;51.534;8.262;2023-07-30T03:11:27;18.20;67.00
17659;DHT22;8948;51.534;8.262;2023-07-30T03:16:28;18.20;67.60
17659;DHT22;8948;51.534;8.262;2023-07-30T03:21:28;18.20;66.50
17659;DHT22;8948;51.534;8.262;2023-07-30T03:26:29;18.10;66.90
17659;DHT22;8948;51.534;8.262;2023-07-30T03:31:30;18.10;68.50
17659;DHT22;8948;51.534;8.262;2023-07-30T03:36:30;18.10;67.90
17659;DHT22;8948;51.534;8.262;2023-07-30T03:41:31;18.00;67.70
17659;DHT22;8948;51.534;8.262;2023-07-30T03:46:31;17.90;66.80
17659;DHT22;8948;51.534;8.262;2023-07-30T03:51:32;17.80;67.30
17659;DHT22;8948;51.534;8.262;2023-07-30T03:56:33;17.60;66.90
17659;DHT22;8948;51.534;8.262;2023-07-30T04:01:33;17.50;67.60
17659;DHT22;8948;51.534;8.262;2023-07-30T04:06:34;17.40;67.50
17659;DHT22;8948;51.534;8.262;2023-07-30T04:11:35;17.30;68.20
17659;DHT22;8948;51.534;8.262;2023-07-30T04:16:35;17.10;69.50
17659;DHT22;8948;51.534;8.262;2023-07-30T04:21:36;17.00;70.20
17659;DHT22;8948;51.534;8.262;2023-07-30T04:26:36;17.10;69.70
17659;DHT22;8948;51.534;8.262;2023-07-30T04:31:37;17.20;69.50
17659;DHT22;8948;51.534;8.262;2023-07-30T04:36:37;17.30;69.50
17659;DHT22;8948;51.534;8.262;2023-07-30T04:41:38;17.20;69.60
17659;DHT22;8948;51.534;8.262;2023-07-30T04:46:38;17.30;70.40
17659;DHT22;8948;51.534;8.262;2023-07-30T04:51:39;17.30;70.50
17659;DHT22;8948;51.534;8.262;2023-07-30T04:56:40;17.40;70.60
17659;DHT22;8948;51.534;8.262;2023-07-30T05:01:40;17.50;70.60
17659;DHT22;8948;51.534;8.262;2023-07-30T05:06:41;17.50;70.90
17659;DHT22;8948;51.534;8.262;2023-07-30T05:11:42;17.50;71.00
17659;DHT22;8948;51.534;8.262;2023-07-30T05:16:42;17.60;70.60
17659;DHT22;8948;51.534;8.262;2023-07-30T05:21:43;17.80;69.80
17659;DHT22;8948;51.534;8.262;2023-07-30T05:26:43;17.90;70.70
17659;DHT22;8948;51.534;8.262;2023-07-30T05:31:44;18.00;70.20
17659;DHT22;8948;51.534;8.262;2023-07-30T05:36:45;17.90;69.40
17659;DHT22;8948;51.534;8.262;2023-07-30T05:41:45;18.00;69.60
17659;DHT22;8948;51.534;8.262;2023-07-30T05:46:46;18.10;69.40
17659;DHT22;8948;51.534;8.262;2023-07-30T05:51:46;18.20;69.20
17659;DHT22;8948;51.534;8.262;2023-07-30T05:56:47;18.30;69.60
17659;DHT22;8948;51.534;8.262;2023-07-30T06:01:47;18.20;68.70
17659;DHT22;8948;51.534;8.262;2023-07-30T06:06:48;18.20;69.10
17659;DHT22;8948;51.534;8.262;2023-07-30T06:11:48;18.50;67.90
17659;DHT22;8948;51.534;8.262;2023-07-30T06:16:49;18.70;66.60
17659;DHT22;8948;51.534;8.262;2023-07-30T06:21:49;18.80;67.40
17659;DHT22;8948;51.534;8.262;2023-07-30T06:26:50;18.80;66.80
17659;DHT22;8948;51.534;8.262;2023-07-30T06:31:50;18.70;67.30
17659;DHT22;8948;51.534;8.262;2023-07-30T06:36:51;18.60;65.60
17659;DHT22;8948;51.534;8.262;2023-07-30T06:41:52;18.60;66.50
17659;DHT22;8948;51.534;8.262;2023-07-30T06:46:52;18.50;66.80
17659;DHT22;8948;51.534;8.262;2023-07-30T06:51:53;18.50;67.70
17659;DHT22;8948;51.534;8.262;2023-07-30T06:56:53;18.60;68.90
17659;DHT22;8948;51.534;8.262;2023-07-30T07:01:54;18.50;68.30
17659;DHT22;8948;51.534;8.262;2023-07-30T07:06:54;18.10;67.70
17659;DHT22;8948;51.534;8.262;2023-07-30T07:11:55;17.70;68.70
17659;DHT22;8948;51.534;8.262;2023-07-30T07:16:55;17.50;67.90
17659;DHT22;8948;51.534;8.262;2023-07-30T07:21:56;17.70;70.40
17659;DHT22;8948;51.534;8.262;2023-07-30T07:26:57;17.80;70.30
17659;DHT22;8948;51.534;8.262;2023-07-30T07:31:58;17.70;70.10
17659;DHT22;8948;51.534;8.262;2023-07-30T07:36:58;17.50;69.90
17659;DHT22;8948;51.534;8.262;2023-07-30T07:41:59;17.50;70.10
17659;DHT22;8948;51.534;8.262;2023-07-30T07:47:00;17.80;71.10
17659;DHT22;8948;51.534;8.262;2023-07-30T07:52:00;18.10;70.80
17659;DHT22;8948;51.534;8.262;2023-07-30T07:57:01;18.20;69.90
17659;DHT22;8948;51.534;8.262;2023-07-30T08:02:01;18.30;70.40
17659;DHT22;8948;51.534;8.262;2023-07-30T08:07:02;18.40;69.70
17659;DHT22;8948;51.534;8.262;2023-07-30T08:12:04;18.40;69.90
17659;DHT22;8948;51.534;8.262;2023-07-30T08:17:05;18.60;68.00
17659;DHT22;8948;51.534;8.262;2023-07-30T08:22:05;18.40;67.10
17659;DHT22;8948;51.534;8.262;2023-07-30T08:27:06;18.30;67.40
17659;DHT22;8948;51.534;8.262;2023-07-30T08:32:06;18.10;68.30
17659;DHT22;8948;51.534;8.262;2023-07-30T08:37:07;17.90;69.00
17659;DHT22;8948;51.534;8.262;2023-07-30T08:42:08;17.80;68.80
17659;DHT22;8948;51.534;8.262;2023-07-30T08:47:08;17.80;69.00
17659;DHT22;8948;51.534;8.262;2023-07-30T08:52:10;17.80;68.70
17659;DHT22;8948;51.534;8.262;2023-07-30T08:57:12;17.80;68.80
17659;DHT22;8948;51.534;8.262;2023-07-30T09:02:23;18.00;69.20
17659;DHT22;8948;51.534;8.262;2023-07-30T09:07:24;18.20;68.20
17659;DHT22;8948;51.534;8.262;2023-07-30T09:12:35;18.20;68.80
17659;DHT22;8948;51.534;8.262;2023-07-30T09:17:36;18.40;68.10
17659;DHT22;8948;51.534;8.262;2023-07-30T09:22:36;18.30;68.70
17659;DHT22;8948;51.534;8.262;2023-07-30T09:27:40;18.60;68.10
17659;DHT22;8948;51.534;8.262;2023-07-30T09:32:40;18.70;67.30
17659;DHT22;8948;51.534;8.262;2023-07-30T09:37:41;18.80;65.70
17659;DHT22;8948;51.534;8.262;2023-07-30T09:42:43;18.80;66.00
17659;DHT22;8948;51.534;8.262;2023-07-30T09:47:47;18.60;66.10
17659;DHT22;8948;51.534;8.262;2023-07-30T09:52:49;18.50;66.90
17659;DHT22;8948;51.534;8.262;2023-07-30T09:57:49;18.60;66.50
17659;DHT22;8948;51.534;8.262;2023-07-30T10:02:50;18.70;66.50
17659;DHT22;8948;51.534;8.262;2023-07-30T10:08:00;19.10;65.50
17659;DHT22;8948;51.534;8.262;2023-07-30T10:13:06;19.30;64.70
17659;DHT22;8948;51.534;8.262;2023-07-30T10:18:08;20.20;62.90
17659;DHT22;8948;51.534;8.262;2023-07-30T10:23:08;20.00;61.20
17659;DHT22;8948;51.534;8.262;2023-07-30T10:28:11;20.20;61.90
17659;DHT22;8948;51.534;8.262;2023-07-30T10:33:50;20.80;59.10
17659;DHT22;8948;51.534;8.262;2023-07-30T10:38:51;20.80;59.10
17659;DHT22;8948;51.534;8.262;2023-07-30T10:43:53;21.30;60.30
17659;DHT22;8948;51.534;8.262;2023-07-30T10:48:54;22.00;55.10
17659;DHT22;8948;51.534;8.262;2023-07-30T10:53:55;22.30;54.80
17659;DHT22;8948;51.534;8.262;2023-07-30T10:58:55;22.60;54.80
17659;DHT22;8948;51.534;8.262;2023-07-30T11:03:56;22.00;54.70
17659;DHT22;8948;51.534;8.262;2023-07-30T11:08:56;21.80;55.80
17659;DHT22;8948;51.534;8.262;2023-07-30T11:13:58;21.50;55.60
17659;DHT22;8948;51.534;8.262;2023-07-30T11:18:59;21.40;55.60
17659;DHT22;8948;51.534;8.262;2023-07-30T11:24:00;21.80;56.30
17659;DHT22;8948;51.534;8.262;2023-07-30T11:29:00;22.80;53.10
17659;DHT22;8948;51.534;8.262;2023-07-30T11:34:01;23.10;51.70
17659;DHT22;8948;51.534;8.262;2023-07-30T11:39:02;23.40;49.30
17659;DHT22;8948;51.534;8.262;2023-07-30T11:44:03;23.50;47.90
17659;DHT22;8948;51.534;8.262;2023-07-30T11:49:15;23.80;49.30
17659;DHT22;8948;51.534;8.262;2023-07-30T11:54:21;23.50;48.70
17659;DHT22;8948;51.534;8.262;2023-07-30T11:59:23;23.50;49.10
17659;DHT22;8948;51.534;8.262;2023-07-30T12:04:23;23.40;46.80
17659;DHT22;8948;51.534;8.262;2023-07-30T12:09:25;23.20;47.80
17659;DHT22;8948;51.534;8.262;2023-07-30T12:14:53;22.80;49.30
17659;DHT22;8948;51.534;8.262;2023-07-30T12:19:54;22.70;49.50
17659;DHT22;8948;51.534;8.262;2023-07-30T12:24:55;23.00;46.90
17659;DHT22;8948;51.534;8.262;2023-07-30T12:29:55;23.50;46.70
17659;DHT22;8948;51.534;8.262;2023-07-30T12:34:56;23.60;47.40
17659;DHT22;8948;51.534;8.262;2023-07-30T12:39:56;24.40;47.20
17659;DHT22;8948;51.534;8.262;2023-07-30T12:44:57;24.90;45.70
17659;DHT22;8948;51.534;8.262;2023-07-30T12:49:57;25.30;46.90
17659;DHT22;8948;51.534;8.262;2023-07-30T12:54:58;24.50;44.30
17659;DHT22;8948;51.534;8.262;2023-07-30T12:59:59;23.90;46.10
17659;DHT22;8948;51.534;8.262;2023-07-30T13:04:59;23.80;48.10
17659;DHT22;8948;51.534;8.262;2023-07-30T13:10:05;24.50;47.00
17659;DHT22;8948;51.534;8.262;2023-07-30T13:15:07;23.80;46.10
17659;DHT22;8948;51.534;8.262;2023-07-30T13:20:08;23.00;47.00
17659;DHT22;8948;51.534;8.262;2023-07-30T13:25:08;22.60;48.50
17659;DHT22;8948;51.534;8.262;2023-07-30T13:30:09;22.40;48.90
17659;DHT22;8948;51.534;8.262;2023-07-30T13:35:10;22.60;49.80
17659;DHT22;8948;51.534;8.262;2023-07-30T13:40:11;22.70;49.20
17659;DHT22;8948;51.534;8.262;2023-07-30T13:45:11;22.60;50.10
17659;DHT22;8948;51.534;8.262;2023-07-30T13:50:12;23.00;49.90
17659;DHT22;8948;51.534;8.262;2023-07-30T13:55:13;23.70;47.90
17659;DHT22;8948;51.534;8.262;2023-07-30T14:00:13;23.10;49.30
17659;DHT22;8948;51.534;8.262;2023-07-30T14:05:14;23.50;49.50
17659;DHT22;8948;51.534;8.262;2023-07-30T14:10:15;24.20;48.20
17659;DHT22;8948;51.534;8.262;2023-07-30T14:15:16;23.90;48.10
17659;DHT22;8948;51.534;8.262;2023-07-30T14:20:16;24.20;47.40
17659;DHT22;8948;51.534;8.262;2023-07-30T14:25:17;23.40;48.10
17659;DHT22;8948;51.534;8.262;2023-07-30T14:30:18;23.10;48.70
17659;DHT22;8948;51.534;8.262;2023-07-30T14:35:18;23.10;48.60
17659;DHT22;8948;51.534;8.262;2023-07-30T14:40:19;23.00;48.90
17659;DHT22;8948;51.534;8.262;2023-07-30T14:45:19;23.00;48.30
17659;DHT22;8948;51.534;8.262;2023-07-30T14:50:20;22.70;49.00
17659;DHT22;8948;51.534;8.262;2023-07-30T14:55:21;22.50;48.60
17659;DHT22;8948;51.534;8.262;2023-07-30T15:00:21;22.90;48.20
17659;DHT22;8948;51.534;8.262;2023-07-30T15:05:22;23.80;50.10
17659;DHT22;8948;51.534;8.262;2023-07-30T15:10:23;23.80;51.30
17659;DHT22;8948;51.534;8.262;2023-07-30T15:15:23;24.60;50.20
17659;DHT22;8948;51.534;8.262;2023-07-30T15:20:24;24.70;47.20
17659;DHT22;8948;51.534;8.262;2023-07-30T15:30:37;23.70;44.60
17659;DHT22;8948;51.534;8.262;2023-07-30T15:35:38;23.30;44.60
17659;DHT22;8948;51.534;8.262;2023-07-30T15:40:39;22.90;46.10
17659;DHT22;8948;51.534;8.262;2023-07-30T15:45:40;22.60;47.00
17659;DHT22;8948;51.534;8.262;2023-07-30T15:50:44;22.20;47.60
17659;DHT22;8948;51.534;8.262;2023-07-30T15:55:44;22.10;48.20
17659;DHT22;8948;51.534;8.262;2023-07-30T16:00:45;22.20;48.80
17659;DHT22;8948;51.534;8.262;2023-07-30T16:05:49;23.00;47.50
17659;DHT22;8948;51.534;8.262;2023-07-30T16:10:49;23.00;47.30
17659;DHT22;8948;51.534;8.262;2023-07-30T16:15:50;23.00;46.60
17659;DHT22;8948;51.534;8.262;2023-07-30T16:21:00;22.90;47.60
17659;DHT22;8948;51.534;8.262;2023-07-30T16:26:01;23.10;47.20
17659;DHT22;8948;51.534;8.262;2023-07-30T16:31:01;22.70;49.00
17659;DHT22;8948;51.534;8.262;2023-07-30T16:36:02;22.40;50.20
17659;DHT22;8948;51.534;8.262;2023-07-30T16:41:04;22.10;49.40
17659;DHT22;8948;51.534;8.262;2023-07-30T16:46:06;21.90;50.30
17659;DHT22;8948;51.534;8.262;2023-07-30T16:51:06;21.90;50.80
17659;DHT22;8948;51.534;8.262;2023-07-30T16:56:11;22.00;50.20
17659;DHT22;8948;51.534;8.262;2023-07-30T17:01:12;22.00;50.90
17659;DHT22;8948;51.534;8.262;2023-07-30T17:06:12;22.10;50.40
17659;DHT22;8948;51.534;8.262;2023-07-30T17:11:13;22.30;50.20
17659;DHT22;8948;51.534;8.262;2023-07-30T17:16:14;22.30;50.30
17659;DHT22;8948;51.534;8.262;2023-07-30T17:21:16;22.40;50.60
17659;DHT22;8948;51.534;8.262;2023-07-30T17:26:17;22.20;50.00
17659;DHT22;8948;51.534;8.262;2023-07-30T17:31:18;22.10;51.10
17659;DHT22;8948;51.534;8.262;2023-07-30T17:36:18;22.10;50.60
17659;DHT22;8948;51.534;8.262;2023-07-30T17:41:19;22.00;51.10
17659;DHT22;8948;51.534;8.262;2023-07-30T17:46:19;22.00;50.70
17659;DHT22;8948;51.534;8.262;2023-07-30T17:51:21;21.90;51.30
17659;DHT22;8948;51.534;8.262;2023-07-30T17:56:21;21.90;51.60
17659;DHT22;8948;51.534;8.262;2023-07-30T18:01:22;21.90;52.30
17659;DHT22;8948;51.534;8.262;2023-07-30T18:06:22;22.00;51.20
17659;DHT22;8948;51.534;8.262;2023-07-30T18:11:24;21.90;52.50
17659;DHT22;8948;51.534;8.262;2023-07-30T18:16:24;21.80;52.00
17659;DHT22;8948;51.534;8.262;2023-07-30T18:21:25;21.90;52.90
17659;DHT22;8948;51.534;8.262;2023-07-30T18:26:25;21.90;52.40
17659;DHT22;8948;51.534;8.262;2023-07-30T18:31:26;21.90;51.60
17659;DHT22;8948;51.534;8.262;2023-07-30T18:36:26;21.80;52.60
17659;DHT22;8948;51.534;8.262;2023-07-30T18:41:27;21.80;52.20
17659;DHT22;8948;51.534;8.262;2023-07-30T18:46:27;21.60;52.10
17659;DHT22;8948;51.534;8.262;2023-07-30T18:51:28;21.50;52.10
17659;DHT22;8948;51.534;8.262;2023-07-30T18:56:29;21.40;52.90
17659;DHT22;8948;51.534;8.262;2023-07-30T19:01:29;21.40;52.90
17659;DHT22;8948;51.534;8.262;2023-07-30T19:06:30;21.30;53.40
17659;DHT22;8948;51.534;8.262;2023-07-30T19:11:30;21.20;53.40
17659;DHT22;8948;51.534;8.262;2023-07-30T19:16:31;21.30;53.00
17659;DHT22;8948;51.534;8.262;2023-07-30T19:21:32;21.20;53.40
17659;DHT22;8948;51.534;8.262;2023-07-30T19:26:32;21.10;53.60
17659;DHT22;8948;51.534;8.262;2023-07-30T19:31:33;20.90;54.40
17659;DHT22;8948;51.534;8.262;2023-07-30T19:36:33;20.80;54.40
17659;DHT22;8948;51.534;8.262;2023-07-30T19:41:34;20.70;54.40
17659;DHT22;8948;51.534;8.262;2023-07-30T19:46:36;20.40;54.20
17659;DHT22;8948;51.534;8.262;2023-07-30T19:51:38;20.40;54.20
17659;DHT22;8948;51.534;8.262;2023-07-30T19:56:39;20.30;54.70
17659;DHT22;8948;51.534;8.262;2023-07-30T20:01:39;20.10;55.60
17659;DHT22;8948;51.534;8.262;2023-07-30T20:06:40;19.80;58.10
17659;DHT22;8948;51.534;8.262;2023-07-30T20:11:41;19.50;60.50
17659;DHT22;8948;51.534;8.262;2023-07-30T20:16:41;19.30;62.90
17659;DHT22;8948;51.534;8.262;2023-07-30T20:21:42;19.20;63.80
17659;DHT22;8948;51.534;8.262;2023-07-30T20:26:44;19.10;65.40
17659;DHT22;8948;51.534;8.262;2023-07-30T20:31:45;19.30;64.80
17659;DHT22;8948;51.534;8.262;2023-07-30T20:36:45;19.40;64.80
17659;DHT22;8948;51.534;8.262;2023-07-30T20:41:46;19.30;65.50
17659;DHT22;8948;51.534;8.262;2023-07-30T20:46:46;19.30;66.10
17659;DHT22;8948;51.534;8.262;2023-07-30T20:51:47;19.20;66.00
17659;DHT22;8948;51.534;8.262;2023-07-30T20:56:47;19.10;65.80
17659;DHT22;8948;51.534;8.262;2023-07-30T21:01:48;19.00;67.10
17659;DHT22;8948;51.534;8.262;2023-07-30T21:06:49;19.00;68.10
17659;DHT22;8948;51.534;8.262;2023-07-30T21:11:49;19.00;67.40
17659;DHT22;8948;51.534;8.262;2023-07-30T21:16:50;18.90;68.50
17659;DHT22;8948;51.534;8.262;2023-07-30T21:21:50;18.70;68.70
17659;DHT22;8948;51.534;8.262;2023-07-30T21:26:51;18.60;69.70
17659;DHT22;8948;51.534;8.262;2023-07-30T21:31:51;18.50;70.40
17659;DHT22;8948;51.534;8.262;2023-07-30T21:36:52;18.50;70.90
17659;DHT22;8948;51.534;8.262;2023-07-30T21:41:52;18.60;69.70
17659;DHT22;8948;51.534;8.262;2023-07-30T21:46:53;18.60;70.20
17659;DHT22;8948;51.534;8.262;2023-07-30T21:51:54;18.40;70.10
17659;DHT22;8948;51.534;8.262;2023-07-30T21:56:55;18.30;71.70
17659;DHT22;8948;51.534;8.262;2023-07-30T22:01:56;18.30;71.90
17659;DHT22;8948;51.534;8.262;2023-07-30T22:06:56;18.30;71.60
17659;DHT22;8948;51.534;8.262;2023-07-30T22:11:57;18.40;70.70
17659;DHT22;8948;51.534;8.262;2023-07-30T22:16:58;18.40;71.00
17659;DHT22;8948;51.534;8.262;2023-07-30T22:21:58;18.20;71.70
17659;DHT22;8948;51.534;8.262;2023-07-30T22:26:59;18.00;73.00
17659;DHT22;8948;51.534;8.262;2023-07-30T22:31:59;18.00;71.50
17659;DHT22;8948;51.534;8.262;2023-07-30T22:37:00;17.80;72.30
17659;DHT22;8948;51.534;8.262;2023-07-30T22:42:01;17.90;72.80
17659;DHT22;8948;51.534;8.262;2023-07-30T22:47:01;17.90;72.60
17659;DHT22;8948;51.534;8.262;2023-07-30T22:52:02;17.90;73.10
17659;DHT22;8948;51.534;8.262;2023-07-30T22:57:03;18.00;72.90
17659;DHT22;8948;51.534;8.262;2023-07-30T23:02:04;17.90;73.00
17659;DHT22;8948;51.534;8.262;2023-07-30T23:07:06;17.90;73.20
17659;DHT22;8948;51.534;8.262;2023-07-30T23:12:07;17.90;73.10
17659;DHT22;8948;51.534;8.262;2023-07-30T23:17:07;17.90;74.30
17659;DHT22;8948;51.534;8.262;2023-07-30T23:22:08;17.90;73.70
17659;DHT22;8948;51.534;8.262;2023-07-30T23:27:09;17.80;75.10
17659;DHT22;8948;51.534;8.262;2023-07-30T23:32:09;17.80;74.20
17659;DHT22;8948;51.534;8.262;2023-07-30T23:37:10;17.80;75.30
17659;DHT22;8948;51.534;8.262;2023-07-30T23:42:10;17.70;74.50
17659;DHT22;8948;51.534;8.262;2023-07-30T23:47:11;17.70;75.70
17659;DHT22;8948;51.534;8.262;2023-07-30T23:52:12;17.70;75.90
17659;DHT22;8948;51.534;8.262;2023-07-30T23:57:12;17.80;75.70
